Time;durP1;ratioP1;P1;durP2;ratioP2;P2;SDS_P1;SDS_P2;PMS_P1;PMS_P2;Temp;Humidity;BMP_temperature;BMP_pressure;BME280_temperature;BME280_humidity;BME280_pressure;Samples;Min_cycle;Max_cycle;Signal;HPM_P1;HPM_P2
2021/06/19 00:02:08;;;;;;;142.43;130.40;;;;;;;14.95;100.00;100942.13;5068879;28;20040;-88
2021/06/19 00:04:35;;;;;;;154.40;141.85;;;;;;;14.92;100.00;100940.75;5072872;28;20065;-88
2021/06/19 00:07:04;;;;;;;153.10;140.60;;;;;;;15.11;100.00;100936.13;5072503;28;20502;-88
2021/06/19 00:09:32;;;;;;;167.27;154.00;;;;;;;15.16;100.00;100940.75;5072069;28;20048;-87
2021/06/19 00:12:00;;;;;;;150.15;137.80;;;;;;;15.20;100.00;100936.59;5071808;28;20052;-88
2021/06/19 00:14:28;;;;;;;183.93;170.52;;;;;;;15.23;100.00;100930.78;5072762;28;20422;-87
2021/06/19 00:16:55;;;;;;;150.68;138.77;;;;;;;15.23;100.00;100936.16;5072265;28;20051;-88
2021/06/19 00:19:22;;;;;;;168.15;155.35;;;;;;;15.23;100.00;100930.78;5072148;28;20595;-88
2021/06/19 00:21:48;;;;;;;160.55;147.45;;;;;;;15.32;100.00;100932.06;5072090;28;20425;-88
2021/06/19 00:24:19;;;;;;;167.98;154.65;;;;;;;15.15;100.00;100928.44;5072524;28;20037;-88
2021/06/19 00:26:47;;;;;;;164.73;151.43;;;;;;;15.28;100.00;100928.22;5071435;28;20049;-88
2021/06/19 00:29:15;;;;;;;199.93;185.73;;;;;;;15.41;100.00;100922.66;5071827;28;20501;-88
2021/06/19 00:31:42;;;;;;;191.10;176.45;;;;;;;15.35;100.00;100924.38;5071819;28;20063;-88
2021/06/19 00:34:09;;;;;;;172.82;159.38;;;;;;;15.34;100.00;100922.78;5072312;28;20135;-88
2021/06/19 00:36:36;;;;;;;161.98;149.20;;;;;;;15.26;100.00;100919.63;5071890;28;20493;-88
2021/06/19 00:39:05;;;;;;;162.27;149.52;;;;;;;15.23;100.00;100920.91;5072979;28;20052;-88
2021/06/19 00:41:32;;;;;;;170.15;156.30;;;;;;;15.32;100.00;100924.03;5072739;28;20406;-88
2021/06/19 00:43:58;;;;;;;167.32;153.70;;;;;;;15.38;100.00;100914.28;5071434;28;20056;-88
2021/06/19 00:46:27;;;;;;;157.80;145.23;;;;;;;15.47;100.00;100924.41;5067622;28;20040;-89
2021/06/19 00:48:53;;;;;;;181.98;168.32;;;;;;;15.55;100.00;100933.91;5072870;28;20052;-87
2021/06/19 00:51:20;;;;;;;152.40;139.85;;;;;;;15.48;100.00;100928.69;5071941;28;20060;-88
2021/06/19 00:53:47;;;;;;;172.40;158.93;;;;;;;15.49;100.00;100919.63;5072119;28;20045;-87
2021/06/19 00:56:15;;;;;;;158.15;145.68;;;;;;;15.53;100.00;100922.66;5071778;28;20040;-88
2021/06/19 00:58:42;;;;;;;145.38;133.57;;;;;;;15.54;100.00;100918.91;5072031;28;20040;-88
2021/06/19 01:01:08;;;;;;;170.50;156.82;;;;;;;15.60;100.00;100920.66;5071397;28;20422;-88
2021/06/19 01:03:37;;;;;;;184.50;170.25;;;;;;;15.45;100.00;100920.31;5071230;28;20044;-90
2021/06/19 01:06:04;;;;;;;166.40;152.90;;;;;;;15.60;100.00;100911.81;5069232;28;20044;-90
2021/06/19 01:08:31;;;;;;;158.48;145.27;;;;;;;15.76;100.00;100911.97;5053653;28;20044;-91
2021/06/19 01:10:58;;;;;;;152.43;140.10;;;;;;;15.86;100.00;100918.56;5068362;28;20058;-90
2021/06/19 01:13:25;;;;;;;186.05;171.77;;;;;;;15.92;100.00;100912.28;5069670;28;20427;-90
2021/06/19 01:15:53;;;;;;;198.85;183.50;;;;;;;15.98;100.00;100906.78;5067782;28;20044;-90
2021/06/19 01:18:19;;;;;;;160.38;147.38;;;;;;;16.00;100.00;100901.97;5070293;28;20044;-90
2021/06/19 01:20:48;;;;;;;175.30;161.50;;;;;;;16.07;100.00;100901.03;5069054;28;20051;-89
2021/06/19 01:23:15;;;;;;;160.23;147.38;;;;;;;16.06;100.00;100905.56;5067083;28;20047;-89
2021/06/19 01:25:43;;;;;;;191.55;176.52;;;;;;;16.01;100.00;100900.13;5072348;28;20048;-90
2021/06/19 01:28:11;;;;;;;199.55;184.35;;;;;;;16.11;100.00;100903.00;5068274;28;20063;-89
2021/06/19 01:30:39;;;;;;;200.00;185.15;;;;;;;16.21;100.00;100897.84;5064637;28;20052;-90
2021/06/19 01:33:08;;;;;;;226.82;210.35;;;;;;;16.40;100.00;100908.38;5070288;28;20048;-89
2021/06/19 01:35:35;;;;;;;197.40;181.98;;;;;;;16.49;100.00;100909.63;5071024;28;20048;-90
2021/06/19 01:38:02;;;;;;;205.43;189.43;;;;;;;16.62;100.00;100909.31;5070942;28;20627;-89
2021/06/19 01:40:30;;;;;;;187.82;170.80;;;;;;;16.61;100.00;100907.72;5072083;28;20044;-89
2021/06/19 01:43:00;;;;;;;192.93;176.63;;;;;;;16.84;100.00;100914.81;5070589;28;20044;-89
2021/06/19 01:45:29;;;;;;;216.30;199.65;;;;;;;16.72;100.00;100908.69;5067416;28;20057;-89
2021/06/19 01:48:01;;;;;;;219.35;202.07;;;;;;;16.66;100.00;100902.41;5071775;28;20052;-89
2021/06/19 01:50:27;;;;;;;211.63;195.27;;;;;;;16.75;100.00;100910.88;5068191;28;20052;-90
2021/06/19 01:52:55;;;;;;;216.35;200.05;;;;;;;16.77;100.00;100908.00;5070771;28;20055;-91
2021/06/19 01:55:22;;;;;;;234.77;217.25;;;;;;;16.76;100.00;100912.53;5071878;28;20049;-89
2021/06/19 01:57:53;;;;;;;233.95;216.55;;;;;;;16.76;100.00;100915.22;5068849;28;20045;-89
2021/06/19 02:00:23;;;;;;;269.08;250.07;;;;;;;16.80;100.00;100907.53;5087911;22;20080;-77
2021/06/19 02:02:50;;;;;;;253.65;234.88;;;;;;;16.82;100.00;100906.19;5031881;28;20057;-76
2021/06/19 02:05:18;;;;;;;231.23;214.05;;;;;;;16.78;100.00;100913.13;5035290;28;20057;-76
2021/06/19 02:07:47;;;;;;;203.48;186.88;;;;;;;17.03;100.00;100911.91;5030013;28;20046;-77
2021/06/19 02:10:14;;;;;;;229.32;212.30;;;;;;;16.91;100.00;100912.81;5035568;28;20433;-77
2021/06/19 02:12:41;;;;;;;211.38;195.30;;;;;;;17.18;100.00;100921.00;5035560;28;20052;-78
2021/06/19 02:15:09;;;;;;;205.23;189.90;;;;;;;17.03;100.00;100914.59;5036067;28;20053;-77
2021/06/19 02:17:38;;;;;;;180.77;166.45;;;;;;;17.08;100.00;100925.41;5039795;28;20052;-79
2021/06/19 02:20:07;;;;;;;208.20;192.38;;;;;;;17.29;100.00;100919.31;5038533;28;20136;-79
2021/06/19 02:22:34;;;;;;;207.48;191.55;;;;;;;16.96;100.00;100922.81;5037740;28;20397;-77
2021/06/19 02:25:01;;;;;;;228.13;211.10;;;;;;;16.74;100.00;100921.88;5040823;28;20456;-79
2021/06/19 02:27:28;;;;;;;203.55;188.38;;;;;;;16.70;100.00;100922.34;5039003;28;20049;-77
2021/06/19 02:29:55;;;;;;;227.35;210.60;;;;;;;16.94;100.00;100923.06;5038431;28;20045;-77
2021/06/19 02:32:22;;;;;;;243.45;225.60;;;;;;;16.83;100.00;100917.75;5023324;28;20107;-77
2021/06/19 02:34:51;;;;;;;253.95;235.35;;;;;;;16.63;100.00;100926.22;5021102;28;20061;-79
2021/06/19 02:37:19;;;;;;;281.35;260.85;;;;;;;16.70;100.00;100918.84;5030122;28;20099;-76
2021/06/19 02:39:46;;;;;;;268.25;248.82;;;;;;;16.62;100.00;100933.47;5018003;28;20061;-79
2021/06/19 02:42:13;;;;;;;281.40;261.38;;;;;;;16.69;100.00;100923.38;5018940;28;20454;-79
2021/06/19 02:44:40;;;;;;;240.43;223.07;;;;;;;17.06;100.00;100928.31;5022646;28;20498;-78
2021/06/19 02:47:07;;;;;;;256.08;237.95;;;;;;;16.98;100.00;100920.69;5029097;28;20080;-79
2021/06/19 02:49:34;;;;;;;211.55;195.77;;;;;;;16.69;100.00;100923.38;5028325;28;20483;-77
2021/06/19 02:52:02;;;;;;;234.05;216.50;;;;;;;17.13;100.00;100926.31;5029158;28;20414;-76
2021/06/19 02:54:29;;;;;;;221.55;204.68;;;;;;;16.75;100.00;100929.66;5024215;28;20053;-79
2021/06/19 02:56:56;;;;;;;224.80;208.70;;;;;;;16.73;100.00;100939.81;5018109;28;20045;-80
2021/06/19 02:59:23;;;;;;;216.02;199.40;;;;;;;16.78;100.00;100931.06;5034701;28;20050;-76
2021/06/19 03:01:49;;;;;;;234.00;216.55;;;;;;;16.71;100.00;100926.66;5028512;28;20049;-78
2021/06/19 03:04:16;;;;;;;246.60;229.38;;;;;;;16.79;100.00;100930.81;5023416;28;20046;-78
2021/06/19 03:06:43;;;;;;;210.07;194.52;;;;;;;16.93;100.00;100931.34;5020880;28;20061;-79
2021/06/19 03:09:12;;;;;;;236.60;219.73;;;;;;;17.20;100.00;100933.38;5017376;28;20049;-78
2021/06/19 03:11:38;;;;;;;188.15;173.23;;;;;;;17.00;100.00;100937.34;5028750;28;20053;-77
2021/06/19 03:14:05;;;;;;;190.27;175.07;;;;;;;16.88;100.00;100932.09;5026576;28;20053;-77
2021/06/19 03:16:35;;;;;;;200.15;184.75;;;;;;;17.11;100.00;100927.59;5026786;28;20104;-78
2021/06/19 03:19:02;;;;;;;221.63;205.52;;;;;;;16.94;100.00;100931.13;5022617;28;20081;-77
2021/06/19 03:21:29;;;;;;;190.73;175.85;;;;;;;16.93;100.00;100931.34;5027996;28;20536;-77
2021/06/19 03:23:55;;;;;;;215.85;199.52;;;;;;;16.87;100.00;100930.44;5021401;28;20057;-77
2021/06/19 03:26:24;;;;;;;203.23;187.57;;;;;;;16.82;100.00;100933.03;5018868;28;20116;-79
2021/06/19 03:28:51;;;;;;;228.90;212.30;;;;;;;16.83;100.00;100925.81;5027014;28;20053;-77
2021/06/19 03:31:18;;;;;;;217.18;201.43;;;;;;;16.85;100.00;100934.41;5030769;28;20414;-76
2021/06/19 03:33:45;;;;;;;216.07;200.07;;;;;;;16.83;100.00;100934.66;5023143;28;20686;-77
2021/06/19 03:36:12;;;;;;;195.63;180.63;;;;;;;16.90;100.00;100926.47;5023746;28;20529;-80
2021/06/19 03:38:39;;;;;;;206.57;191.05;;;;;;;16.83;100.00;100929.31;5019456;28;20041;-79
2021/06/19 03:41:06;;;;;;;199.95;184.75;;;;;;;17.00;100.00;100934.66;5032133;28;20107;-78
2021/06/19 03:43:34;;;;;;;205.70;190.15;;;;;;;16.98;100.00;100936.81;5023539;28;20053;-79
2021/06/19 03:46:01;;;;;;;213.13;197.68;;;;;;;16.91;100.00;100931.59;5014378;28;20068;-77
2021/06/19 03:48:28;;;;;;;213.48;197.48;;;;;;;16.96;100.00;100930.03;5020618;28;20108;-77
2021/06/19 03:50:54;;;;;;;225.90;209.80;;;;;;;17.16;100.00;100936.56;5019599;28;20049;-79
2021/06/19 03:53:21;;;;;;;207.77;192.30;;;;;;;17.04;100.00;100925.09;5018644;28;20128;-77
2021/06/19 03:55:48;;;;;;;226.35;209.68;;;;;;;17.08;100.00;100925.41;5017127;28;20317;-77
2021/06/19 03:58:17;;;;;;;237.73;220.18;;;;;;;17.31;100.00;100927.94;5021099;28;20093;-78
2021/06/19 04:00:45;;;;;;;204.32;188.68;;;;;;;17.25;100.00;100928.09;5012491;28;20088;-77
2021/06/19 04:03:12;;;;;;;197.55;182.18;;;;;;;17.32;100.00;100926.06;5003440;28;20050;-77
2021/06/19 04:05:38;;;;;;;209.27;194.00;;;;;;;17.39;100.00;100927.50;5005006;28;20060;-79
2021/06/19 04:08:05;;;;;;;170.52;157.23;;;;;;;17.28;100.00;100912.31;5007581;28;20046;-79
2021/06/19 04:10:32;;;;;;;191.93;177.68;;;;;;;17.46;100.00;100915.78;5007503;28;20050;-77
2021/06/19 04:12:59;;;;;;;166.05;153.18;;;;;;;17.39;100.00;100919.44;5010139;28;20053;-77
2021/06/19 04:15:26;;;;;;;182.77;168.68;;;;;;;17.56;100.00;100916.75;5010977;28;20060;-78
2021/06/19 04:17:54;;;;;;;192.45;177.90;;;;;;;17.97;100.00;100913.81;4996050;28;20061;-77
2021/06/19 04:20:21;;;;;;;187.10;172.75;;;;;;;17.79;100.00;100914.91;4995304;28;20061;-78
2021/06/19 04:22:48;;;;;;;200.25;185.55;;;;;;;17.68;100.00;100918.53;4992647;28;20536;-77
2021/06/19 04:25:16;;;;;;;188.82;174.43;;;;;;;18.04;100.00;100917.94;4996145;28;20108;-79
2021/06/19 04:27:45;;;;;;;198.50;183.35;;;;;;;17.73;100.00;100923.94;4991135;28;20053;-80
2021/06/19 04:30:15;;;;;;;197.15;182.30;;;;;;;17.73;100.00;100911.34;5039128;22;20033;-90
2021/06/19 04:32:42;;;;;;;226.38;209.88;;;;;;;17.90;100.00;100908.63;5046463;28;20068;-90
2021/06/19 04:35:14;;;;;;;186.90;172.25;;;;;;;17.70;100.00;100919.91;5045508;28;20045;-90
2021/06/19 04:37:41;;;;;;;210.00;194.43;;;;;;;17.96;100.00;100920.25;5043238;28;20053;-91
2021/06/19 04:40:14;;;;;;;184.48;170.23;;;;;;;17.57;100.00;100915.69;5045845;28;20517;-90
2021/06/19 04:42:44;;;;;;;222.07;206.07;;;;;;;17.68;100.00;100913.94;5046020;28;20095;-91
2021/06/19 04:45:13;;;;;;;186.18;172.18;;;;;;;17.70;100.00;100914.53;5048228;28;20080;-90
2021/06/19 04:47:40;;;;;;;165.35;152.48;;;;;;;17.61;100.00;100916.81;5043845;28;20044;-90
2021/06/19 04:50:10;;;;;;;190.68;176.77;;;;;;;17.72;100.00;100912.38;5049172;28;20041;-90
2021/06/19 04:52:41;;;;;;;166.82;153.73;;;;;;;17.59;100.00;100910.88;5039789;28;20053;-90
2021/06/19 04:55:11;;;;;;;191.13;176.85;;;;;;;18.02;100.00;100912.00;5046461;28;20052;-90
2021/06/19 04:57:39;;;;;;;164.75;151.82;;;;;;;17.73;100.00;100914.03;5043782;28;20498;-89
2021/06/19 05:00:46;;;;;;;176.77;163.27;;;;;;;17.93;100.00;100913.50;5049806;28;20053;-89
2021/06/19 05:03:17;;;;;;;178.13;164.60;;;;;;;18.02;100.00;100911.19;5026545;28;20049;-90
2021/06/19 05:05:44;;;;;;;182.82;169.25;;;;;;;17.82;100.00;100911.72;5030202;28;20519;-90
2021/06/19 05:08:12;;;;;;;184.68;170.88;;;;;;;17.83;100.00;100914.19;5028793;28;20053;-90
2021/06/19 05:10:39;;;;;;;170.73;157.63;;;;;;;17.93;100.00;100910.81;5027965;28;20496;-90
2021/06/19 05:13:06;;;;;;;173.52;160.23;;;;;;;18.01;100.00;100898.81;5029932;28;20111;-90
2021/06/19 05:15:32;;;;;;;163.75;151.02;;;;;;;18.35;100.00;100902.16;5026661;28;20045;-90
2021/06/19 05:17:59;;;;;;;162.38;149.73;;;;;;;18.48;100.00;100900.94;5025901;28;20053;-89
2021/06/19 05:20:28;;;;;;;164.90;152.13;;;;;;;18.52;100.00;100897.50;5026944;28;20050;-91
2021/06/19 05:22:56;;;;;;;186.27;172.55;;;;;;;18.47;100.00;100896.63;5027739;28;20041;-90
2021/06/19 05:25:24;;;;;;;186.60;172.23;;;;;;;18.46;100.00;100905.78;5028794;28;20050;-90
2021/06/19 05:27:51;;;;;;;166.35;153.32;;;;;;;18.39;100.00;100897.88;5019458;28;20061;-90
2021/06/19 05:30:19;;;;;;;171.35;158.35;;;;;;;18.45;100.00;100893.38;5020034;28;20446;-90
2021/06/19 05:32:46;;;;;;;161.73;149.23;;;;;;;18.46;100.00;100895.81;5028330;28;20049;-90
2021/06/19 05:35:13;;;;;;;178.75;165.65;;;;;;;18.52;100.00;100894.00;5025675;28;20056;-89
2021/06/19 05:37:40;;;;;;;167.63;155.02;;;;;;;18.70;100.00;100896.31;5022967;28;20418;-90
2021/06/19 05:40:08;;;;;;;181.00;167.00;;;;;;;18.98;100.00;100891.72;5028587;28;20069;-90
2021/06/19 05:42:36;;;;;;;162.35;149.68;;;;;;;18.95;100.00;100903.00;5026250;28;20069;-89
2021/06/19 05:45:05;;;;;;;162.80;150.35;;;;;;;18.92;100.00;100896.25;5028156;28;20056;-90
2021/06/19 05:47:32;;;;;;;172.32;158.95;;;;;;;18.72;100.00;100896.03;5027617;28;20049;-90
2021/06/19 05:49:58;;;;;;;179.57;165.60;;;;;;;19.13;100.00;100901.81;5024877;28;20052;-89
2021/06/19 05:52:26;;;;;;;164.57;151.98;;;;;;;18.83;100.00;100895.09;5024200;28;20056;-90
2021/06/19 05:54:53;;;;;;;165.98;153.13;;;;;;;18.97;100.00;100895.47;5030328;28;20046;-90
2021/06/19 05:57:20;;;;;;;163.27;150.90;;;;;;;18.94;100.00;100894.13;5023965;28;20056;-90
2021/06/19 05:59:48;;;;;;;169.38;156.25;;;;;;;19.10;100.00;100897.75;5023422;28;20111;-90
2021/06/19 06:02:15;;;;;;;162.98;150.45;;;;;;;18.93;100.00;100897.88;5022591;28;20046;-90
2021/06/19 06:04:44;;;;;;;175.38;162.02;;;;;;;19.02;100.00;100894.72;5024700;28;20046;-90
2021/06/19 06:07:10;;;;;;;160.38;148.07;;;;;;;18.93;100.00;100905.94;5025938;28;20045;-90
2021/06/19 06:09:38;;;;;;;161.38;149.60;;;;;;;18.81;100.00;100902.59;5028172;28;20099;-89
2021/06/19 06:12:06;;;;;;;160.32;148.32;;;;;;;18.97;100.00;100907.06;5022325;28;20084;-91
2021/06/19 06:14:33;;;;;;;162.73;150.02;;;;;;;19.11;100.00;100901.25;5026690;28;20096;-90
2021/06/19 06:17:02;;;;;;;165.00;152.35;;;;;;;19.33;100.00;100895.72;5021717;28;20428;-90
2021/06/19 06:19:28;;;;;;;178.55;164.73;;;;;;;19.56;100.00;100902.59;5024463;28;20048;-90
2021/06/19 06:21:55;;;;;;;184.10;170.25;;;;;;;19.49;100.00;100902.84;5024736;28;20530;-90
2021/06/19 06:24:22;;;;;;;180.88;167.07;;;;;;;19.83;100.00;100899.81;5030003;28;20050;-88
2021/06/19 06:26:49;;;;;;;197.80;182.88;;;;;;;19.85;100.00;100900.38;5025948;28;20041;-87
2021/06/19 06:29:16;;;;;;;164.93;152.63;;;;;;;19.80;100.00;100898.44;5028810;28;20541;-91
2021/06/19 06:31:42;;;;;;;158.43;146.75;;;;;;;19.67;100.00;100893.53;5027704;28;20511;-89
2021/06/19 06:34:11;;;;;;;162.75;150.88;;;;;;;19.52;100.00;100885.34;5028860;28;20549;-89
2021/06/19 06:36:38;;;;;;;169.55;157.00;;;;;;;19.16;100.00;100888.63;5027823;28;20049;-89
2021/06/19 06:39:05;;;;;;;183.45;170.10;;;;;;;19.30;100.00;100896.25;5027909;28;20048;-89
2021/06/19 06:41:32;;;;;;;191.80;178.02;;;;;;;19.38;100.00;100896.56;5023194;28;20042;-89
2021/06/19 06:43:59;;;;;;;191.38;177.50;;;;;;;19.27;100.00;100902.16;5023735;28;20041;-88
2021/06/19 06:46:26;;;;;;;171.65;158.80;;;;;;;19.34;100.00;100905.44;5086157;22;20059;-78
2021/06/19 06:48:53;;;;;;;183.80;170.13;;;;;;;19.54;100.00;100904.75;5058108;28;20051;-80
2021/06/19 06:51:21;;;;;;;166.30;154.50;;;;;;;19.51;100.00;100906.06;5057872;28;20477;-82
2021/06/19 06:53:48;;;;;;;158.35;147.25;;;;;;;19.48;100.00;100906.59;5059567;28;20444;-80
2021/06/19 06:56:14;;;;;;;148.95;137.85;;;;;;;19.31;100.00;100905.97;5057092;28;20064;-78
2021/06/19 06:58:41;;;;;;;160.93;149.02;;;;;;;18.97;100.00;100906.22;5061077;28;20060;-80
2021/06/19 07:01:08;;;;;;;172.13;160.25;;;;;;;19.15;100.00;100905.03;5059232;28;20051;-78
2021/06/19 07:03:35;;;;;;;159.05;147.88;;;;;;;19.19;100.00;100909.66;5063992;28;20151;-80
2021/06/19 07:06:02;;;;;;;161.27;149.77;;;;;;;19.03;100.00;100901.72;5063296;28;20089;-79
2021/06/19 07:08:30;;;;;;;159.15;147.70;;;;;;;19.18;100.00;100899.97;5066304;28;20048;-78
2021/06/19 07:10:57;;;;;;;172.10;159.13;;;;;;;19.12;100.00;100895.59;5068653;28;20048;-80
2021/06/19 07:13:24;;;;;;;174.00;161.23;;;;;;;19.62;100.00;100896.97;5059543;28;20114;-80
2021/06/19 07:15:51;;;;;;;156.65;145.00;;;;;;;19.52;100.00;100886.16;5067338;28;20060;-81
2021/06/19 07:18:18;;;;;;;160.70;149.30;;;;;;;20.11;100.00;100885.06;5062211;28;20053;-81
2021/06/19 07:20:44;;;;;;;146.75;135.95;;;;;;;19.87;100.00;100874.75;5065918;28;20132;-77
2021/06/19 07:23:11;;;;;;;149.02;137.88;;;;;;;19.56;100.00;100873.78;5058768;28;20424;-77
2021/06/19 07:25:40;;;;;;;143.13;132.73;;;;;;;19.65;100.00;100879.50;5058353;28;20453;-77
2021/06/19 07:28:06;;;;;;;161.20;149.13;;;;;;;19.90;100.00;100874.22;5061935;28;20060;-79
2021/06/19 07:30:33;;;;;;;181.45;167.93;;;;;;;20.11;100.00;100872.41;5178273;22;20023;-77
2021/06/19 07:33:00;;;;;;;148.18;137.43;;;;;;;20.33;100.00;100863.28;5026682;28;20054;-79
2021/06/19 07:35:27;;;;;;;169.90;157.57;;;;;;;20.48;100.00;100852.50;5033340;28;20065;-79
2021/06/19 07:37:54;;;;;;;157.32;145.90;;;;;;;20.40;100.00;100850.34;5032129;28;20049;-79
2021/06/19 07:40:21;;;;;;;150.02;139.20;;;;;;;20.29;100.00;100851.41;5030860;28;20107;-77
2021/06/19 07:42:49;;;;;;;134.93;125.32;;;;;;;20.30;100.00;100845.75;5023169;28;20053;-77
2021/06/19 07:45:16;;;;;;;132.02;122.82;;;;;;;20.01;100.00;100850.00;5039548;28;20049;-80
2021/06/19 07:47:43;;;;;;;136.35;126.82;;;;;;;19.96;100.00;100847.28;5035493;28;20044;-80
2021/06/19 07:50:11;;;;;;;145.65;135.43;;;;;;;19.80;100.00;100857.22;5029882;28;20506;-83
2021/06/19 07:52:38;;;;;;;148.25;136.90;;;;;;;19.92;100.00;100863.19;5033684;28;20053;-77
2021/06/19 07:55:05;;;;;;;147.35;136.77;;;;;;;19.96;100.00;100855.38;5019859;28;20513;-79
2021/06/19 07:57:32;;;;;;;138.93;129.10;;;;;;;19.64;100.00;100851.75;5026380;28;20057;-77
2021/06/19 08:00:00;;;;;;;146.07;135.40;;;;;;;19.65;100.00;100855.25;5028531;28;20418;-79
2021/06/19 08:02:27;;;;;;;130.27;120.93;;;;;;;19.78;100.00;100854.78;5036771;28;20050;-77
2021/06/19 08:04:54;;;;;;;143.40;133.30;;;;;;;19.75;100.00;100854.50;5038669;28;20045;-77
2021/06/19 08:07:21;;;;;;;146.15;135.35;;;;;;;19.76;100.00;100846.16;5034490;28;20053;-79
2021/06/19 08:09:48;;;;;;;152.35;141.93;;;;;;;19.94;100.00;100835.94;5029932;28;20072;-79
2021/06/19 08:12:15;;;;;;;147.35;137.05;;;;;;;20.19;100.00;100830.63;5025702;28;20183;-79
2021/06/19 08:14:42;;;;;;;152.13;141.43;;;;;;;20.62;100.00;100827.72;5035760;28;20068;-82
2021/06/19 08:17:16;;;;;;;163.68;151.88;;;;;;;21.15;100.00;100826.31;5030047;28;20066;-77
2021/06/19 08:19:44;;;;;;;136.45;127.15;;;;;;;21.07;100.00;100818.78;5025368;28;20050;-79
2021/06/19 08:22:11;;;;;;;130.75;121.85;;;;;;;20.85;100.00;100816.38;5028261;28;20520;-79
2021/06/19 08:24:38;;;;;;;118.72;110.50;;;;;;;20.65;100.00;100822.59;5034203;28;20468;-79
2021/06/19 08:27:06;;;;;;;131.45;122.45;;;;;;;20.35;100.00;100818.78;5025804;28;20050;-79
2021/06/19 08:29:33;;;;;;;130.50;121.40;;;;;;;20.25;100.00;100823.38;5021876;28;20359;-79
2021/06/19 08:32:01;;;;;;;150.95;140.65;;;;;;;20.24;100.00;100825.25;5035844;28;20549;-77
2021/06/19 08:34:29;;;;;;;158.65;147.60;;;;;;;20.27;100.00;100831.97;5026881;28;20060;-77
2021/06/19 08:36:57;;;;;;;147.75;137.32;;;;;;;20.10;100.00;100843.81;5026972;28;20045;-76
2021/06/19 08:39:24;;;;;;;163.00;151.23;;;;;;;19.88;100.00;100832.47;5026291;28;20052;-78
2021/06/19 08:41:55;;;;;;;175.18;162.93;;;;;;;19.74;100.00;100853.69;5027907;28;20053;-75
2021/06/19 08:44:23;;;;;;;170.83;157.83;;;;;;;19.76;100.00;100864.19;5039651;28;20053;-82
2021/06/19 08:46:51;;;;;;;179.65;166.57;;;;;;;19.55;100.00;100872.16;5032830;28;20056;-78
2021/06/19 08:49:18;;;;;;;168.32;154.93;;;;;;;19.20;100.00;100868.19;5028530;28;20878;-75
2021/06/19 08:51:47;;;;;;;166.73;153.32;;;;;;;19.26;100.00;100876.31;5034588;28;20049;-76
2021/06/19 08:54:15;;;;;;;174.98;161.18;;;;;;;18.98;100.00;100875.56;5039835;28;20118;-78
2021/06/19 08:56:42;;;;;;;179.52;165.70;;;;;;;19.24;100.00;100881.94;5032137;28;20049;-78
2021/06/19 08:59:09;;;;;;;180.63;166.32;;;;;;;19.15;100.00;100886.19;5030151;28;20053;-76
2021/06/19 09:01:37;;;;;;;178.85;164.35;;;;;;;18.99;100.00;100896.03;5027151;28;20065;-76
2021/06/19 09:04:05;;;;;;;192.48;177.88;;;;;;;18.94;100.00;100901.38;5025955;28;20052;-78
2021/06/19 09:06:32;;;;;;;181.15;167.05;;;;;;;18.95;100.00;100889.56;5035374;28;20053;-78
2021/06/19 09:09:05;;;;;;;186.90;172.85;;;;;;;19.01;100.00;100882.31;5032431;28;20049;-78
2021/06/19 09:11:33;;;;;;;182.55;168.52;;;;;;;19.19;100.00;100888.09;5024245;28;20045;-78
2021/06/19 09:14:01;;;;;;;184.50;170.43;;;;;;;18.98;100.00;100873.69;5030224;28;20051;-78
2021/06/19 09:16:28;;;;;;;187.85;173.85;;;;;;;18.99;100.00;100878.00;5026570;28;20053;-76
2021/06/19 09:18:55;;;;;;;188.52;174.00;;;;;;;19.19;100.00;100871.16;5037184;28;20060;-79
2021/06/19 09:21:35;;;;;;;190.15;175.15;;;;;;;19.83;100.00;100867.47;5036334;28;20060;-76
2021/06/19 09:24:03;;;;;;;203.25;187.35;;;;;;;20.22;100.00;100862.47;5036457;28;20100;-78
2021/06/19 09:26:33;;;;;;;215.38;199.30;;;;;;;20.31;100.00;100849.25;5026974;28;20056;-76
2021/06/19 09:29:09;;;;;;;184.93;171.32;;;;;;;20.46;100.00;100838.50;5035340;28;20037;-76
2021/06/19 09:31:46;;;;;;;178.50;165.32;;;;;;;20.26;100.00;100833.06;5031320;28;20412;-79
2021/06/19 09:34:15;;;;;;;185.10;171.52;;;;;;;20.17;100.00;100831.97;5027094;28;20573;-78
2021/06/19 09:36:51;;;;;;;195.05;180.40;;;;;;;20.23;100.00;100836.28;5032623;28;20060;-78
2021/06/19 09:39:21;;;;;;;192.55;177.77;;;;;;;20.21;100.00;100833.03;5030564;28;20085;-79
2021/06/19 09:41:52;;;;;;;194.85;179.98;;;;;;;20.27;100.00;100829.28;5026377;28;20065;-78
2021/06/19 09:44:34;;;;;;;190.43;175.98;;;;;;;20.23;100.00;100834.41;5035122;28;20103;-76
2021/06/19 09:47:02;;;;;;;189.80;175.90;;;;;;;20.01;100.00;100841.91;5033542;28;20059;-78
2021/06/19 09:49:33;;;;;;;178.45;165.43;;;;;;;19.67;100.00;100845.03;5032939;28;20049;-78
2021/06/19 09:52:01;;;;;;;188.60;174.50;;;;;;;19.33;100.00;100853.44;5035651;28;20046;-78
2021/06/19 09:54:31;;;;;;;194.57;180.27;;;;;;;19.02;100.00;100854.34;5029926;28;20060;-76
2021/06/19 09:57:09;;;;;;;187.95;173.65;;;;;;;18.98;100.00;100840.59;5032981;28;20049;-76
2021/06/19 09:59:39;;;;;;;195.57;180.68;;;;;;;19.14;100.00;100841.50;5029621;28;20041;-80
2021/06/19 10:02:22;;;;;;;212.38;196.07;;;;;;;19.48;100.00;100838.44;5027459;28;20046;-77
2021/06/19 10:04:52;;;;;;;212.90;196.15;;;;;;;20.29;100.00;100836.03;5029881;28;20474;-75
2021/06/19 10:07:19;;;;;;;233.05;214.70;;;;;;;20.41;100.00;100830.38;5028416;28;20044;-78
2021/06/19 10:09:50;;;;;;;253.43;233.60;;;;;;;21.34;100.00;100831.94;5032247;28;20052;-76
2021/06/19 10:12:20;;;;;;;232.23;214.85;;;;;;;21.57;100.00;100813.50;5030092;28;20052;-75
2021/06/19 10:14:48;;;;;;;213.82;198.07;;;;;;;20.99;100.00;100809.31;5027456;28;20133;-78
2021/06/19 10:17:17;;;;;;;216.02;199.95;;;;;;;21.18;100.00;100811.44;5029272;28;20041;-78
2021/06/19 10:19:45;;;;;;;235.98;217.38;;;;;;;21.88;100.00;100806.06;5029395;28;20455;-77
2021/06/19 10:22:19;;;;;;;270.02;248.52;;;;;;;22.05;100.00;100800.28;5031310;28;20080;-75
2021/06/19 10:24:50;;;;;;;231.55;213.65;;;;;;;21.73;100.00;100794.25;5028604;28;20410;-75
2021/06/19 10:27:18;;;;;;;245.98;228.77;;;;;;;21.94;100.00;100786.03;5029277;28;20960;-78
2021/06/19 10:29:46;;;;;;;199.00;185.07;;;;;;;21.72;100.00;100778.28;5026029;28;20485;-79
2021/06/19 10:32:15;;;;;;;219.82;204.45;;;;;;;22.13;100.00;100791.56;5044679;23;20046;-90
2021/06/19 10:34:51;;;;;;;192.80;179.30;;;;;;;21.92;100.00;100780.88;5026008;28;20076;-90
2021/06/19 10:37:30;;;;;;;181.98;169.45;;;;;;;21.86;100.00;100770.38;5027491;28;20061;-90
2021/06/19 10:40:16;;;;;;;200.23;186.70;;;;;;;21.42;100.00;100781.94;5031692;28;20108;-91
2021/06/19 10:42:43;;;;;;;169.48;157.35;;;;;;;21.24;100.00;100786.88;5032398;28;20041;-89
2021/06/19 10:45:19;;;;;;;197.00;183.05;;;;;;;21.30;100.00;100792.22;5031023;28;20046;-90
2021/06/19 10:48:08;;;;;;;172.88;160.93;;;;;;;21.09;100.00;100784.22;5028339;28;20103;-90
2021/06/19 10:50:36;;;;;;;222.95;207.45;;;;;;;21.60;100.00;100786.72;5028623;28;20088;-90
2021/06/19 10:53:05;;;;;;;199.23;186.00;;;;;;;21.30;100.00;100784.94;5028266;28;20135;-90